createdAt,value
2018-03-16T00:00:39.519Z,5.30
2018-03-16T00:03:07.214Z,5.32
2018-03-16T00:05:34.967Z,5.31
2018-03-16T00:08:02.743Z,5.31
2018-03-16T00:10:30.565Z,5.31
2018-03-16T00:12:58.402Z,5.28
2018-03-16T00:15:26.259Z,5.33
2018-03-16T00:17:53.816Z,5.29
2018-03-16T00:20:21.595Z,5.34
2018-03-16T00:22:49.192Z,5.32
2018-03-16T00:25:16.761Z,5.31
2018-03-16T00:27:44.399Z,5.34
2018-03-16T00:30:11.956Z,5.34
2018-03-16T00:32:39.958Z,5.31
2018-03-16T00:35:08.036Z,5.31
2018-03-16T00:37:35.883Z,5.36
2018-03-16T00:40:04.004Z,5.38
2018-03-16T00:42:32.052Z,5.40
2018-03-16T00:44:59.821Z,5.36
2018-03-16T00:47:27.420Z,5.37
2018-03-16T00:49:55.306Z,5.35
2018-03-16T00:52:23.418Z,5.34
2018-03-16T00:54:51.284Z,5.38
2018-03-16T00:57:18.868Z,5.38
2018-03-16T00:59:46.489Z,5.40
2018-03-16T01:02:14.075Z,5.36
2018-03-16T01:04:41.670Z,5.36
2018-03-16T01:07:09.326Z,5.37
2018-03-16T01:09:37.355Z,5.32
2018-03-16T01:12:04.975Z,5.31
2018-03-16T01:14:33.012Z,5.36
2018-03-16T01:17:00.575Z,5.36
2018-03-16T01:19:28.226Z,5.36
2018-03-16T01:21:56.064Z,5.35
2018-03-16T01:24:23.722Z,5.38
2018-03-16T01:26:51.555Z,5.38
2018-03-16T01:29:19.266Z,5.36
2018-03-16T01:31:46.875Z,5.34
2018-03-16T01:34:14.563Z,5.35
2018-03-16T01:36:42.444Z,5.36
2018-03-16T01:39:09.998Z,5.36
2018-03-16T01:41:37.852Z,5.39
2018-03-16T01:44:05.624Z,5.38
2018-03-16T01:46:33.274Z,5.39
2018-03-16T01:49:01.315Z,5.40
2018-03-16T01:51:29.189Z,5.38
2018-03-16T01:53:56.817Z,5.41
2018-03-16T01:56:24.930Z,5.38
2018-03-16T01:58:52.673Z,5.41
2018-03-16T02:01:20.485Z,5.37
2018-03-16T02:03:48.193Z,5.37
2018-03-16T02:06:15.866Z,5.42
2018-03-16T02:08:43.610Z,5.39
2018-03-16T02:11:11.230Z,5.40
2018-03-16T02:13:38.928Z,5.34
2018-03-16T02:16:06.529Z,5.40
2018-03-16T02:18:34.331Z,5.41
2018-03-16T02:21:02.032Z,5.42
2018-03-16T02:23:29.693Z,5.43
2018-03-16T02:25:57.340Z,5.42
2018-03-16T02:30:51.978Z,5.43
2018-03-16T02:33:19.619Z,5.46
2018-03-16T02:35:47.237Z,5.48
2018-03-16T02:38:15.016Z,5.42
2018-03-16T02:40:42.648Z,5.41
2018-03-16T02:43:10.311Z,5.42
2018-03-16T02:45:38.033Z,5.42
2018-03-16T02:48:05.646Z,5.39
2018-03-16T02:50:33.418Z,5.41
2018-03-16T02:53:01.919Z,5.42
2018-03-16T02:55:30.320Z,5.43
2018-03-16T02:57:58.472Z,5.41
2018-03-16T03:00:26.357Z,5.43
2018-03-16T03:02:54.211Z,5.46
2018-03-16T03:05:22.018Z,5.44
2018-03-16T03:07:49.650Z,5.43
2018-03-16T03:10:17.257Z,5.41
2018-03-16T03:15:12.162Z,5.39
2018-03-16T03:17:39.789Z,5.43
2018-03-16T03:20:07.353Z,5.39
2018-03-16T03:22:35.064Z,5.45
2018-03-16T03:25:02.642Z,5.41
2018-03-16T03:27:30.303Z,5.39
2018-03-16T03:29:57.978Z,5.40
2018-03-16T03:32:25.566Z,5.36
2018-03-16T03:34:53.227Z,5.37
2018-03-16T03:37:20.819Z,5.35
2018-03-16T03:39:48.405Z,5.38
2018-03-16T03:42:16.185Z,5.37
2018-03-16T03:44:43.862Z,5.35
2018-03-16T03:47:11.513Z,5.36
2018-03-16T03:49:39.298Z,5.40
2018-03-16T03:52:07.269Z,5.42
2018-03-16T03:54:34.928Z,5.36
2018-03-16T03:57:02.558Z,5.35
2018-03-16T03:59:30.143Z,5.36
2018-03-16T04:01:57.723Z,5.37
2018-03-16T04:04:25.384Z,5.36
2018-03-16T04:06:53.026Z,5.31
2018-03-16T04:09:20.900Z,5.34
2018-03-16T04:11:48.478Z,5.33
2018-03-16T04:14:16.429Z,5.34
2018-03-16T04:16:44.091Z,5.31
2018-03-16T04:19:11.750Z,5.24
2018-03-16T04:21:39.397Z,5.20
2018-03-16T04:24:06.975Z,5.18
2018-03-16T04:26:34.619Z,5.17
2018-03-16T04:29:02.308Z,5.24
2018-03-16T04:31:29.889Z,5.11
2018-03-16T04:33:57.559Z,5.16
2018-03-16T04:36:25.209Z,5.13
2018-03-16T04:38:53.109Z,5.14
2018-03-16T04:41:21.126Z,5.08
2018-03-16T04:43:48.737Z,5.05
2018-03-16T04:46:16.302Z,5.05
2018-03-16T04:48:44.610Z,5.04
2018-03-16T04:51:12.201Z,5.01
2018-03-16T04:53:39.796Z,5.06
2018-03-16T04:56:07.423Z,4.96
2018-03-16T04:58:35.113Z,4.94
2018-03-16T05:01:02.706Z,4.98
2018-03-16T05:03:30.305Z,4.92
2018-03-16T05:05:58.021Z,4.93
2018-03-16T05:08:25.713Z,4.85
2018-03-16T05:10:53.510Z,4.82
2018-03-16T05:13:21.231Z,4.82
2018-03-16T05:15:48.843Z,4.85
2018-03-16T05:18:16.437Z,4.82
2018-03-16T05:20:44.044Z,4.78
2018-03-16T05:23:11.657Z,4.80
2018-03-16T05:25:39.227Z,4.81
2018-03-16T05:28:06.863Z,4.74
2018-03-16T05:30:34.543Z,4.74
2018-03-16T05:33:02.180Z,4.77
2018-03-16T05:35:29.782Z,4.74
2018-03-16T05:37:57.511Z,4.75
2018-03-16T05:40:25.185Z,4.68
2018-03-16T05:42:52.784Z,4.73
2018-03-16T05:45:20.574Z,4.69
2018-03-16T05:47:48.367Z,4.62
2018-03-16T05:50:15.969Z,4.54
2018-03-16T05:52:43.623Z,4.55
2018-03-16T05:55:11.301Z,4.59
2018-03-16T05:57:38.921Z,4.48
2018-03-16T06:00:06.760Z,4.51
2018-03-16T06:02:34.709Z,4.57
2018-03-16T06:05:02.295Z,4.55
2018-03-16T06:07:29.886Z,4.46
2018-03-16T06:09:57.924Z,4.40
2018-03-16T06:12:25.583Z,4.43
2018-03-16T06:14:53.233Z,4.43
2018-03-16T06:17:20.852Z,4.45
2018-03-16T06:19:48.850Z,4.44
2018-03-16T06:22:16.512Z,4.43
2018-03-16T06:24:44.374Z,4.39
2018-03-16T06:27:11.943Z,4.38
2018-03-16T06:29:42.476Z,4.43
2018-03-16T06:32:10.146Z,4.42
2018-03-16T06:34:37.707Z,4.44
2018-03-16T06:37:05.368Z,4.40
2018-03-16T06:39:33.027Z,4.42
2018-03-16T06:42:01.499Z,4.36
2018-03-16T06:44:29.160Z,4.39
2018-03-16T06:46:56.989Z,4.40
2018-03-16T06:49:24.826Z,4.39
2018-03-16T06:51:59.403Z,4.42
2018-03-16T06:54:27.225Z,4.38
2018-03-16T06:56:54.865Z,4.37
2018-03-16T06:59:22.608Z,4.36
2018-03-16T07:01:50.300Z,4.32
2018-03-16T07:04:17.961Z,4.37
2018-03-16T07:06:45.618Z,4.37
2018-03-16T07:09:13.573Z,4.34
2018-03-16T07:11:58.773Z,4.33
2018-03-16T07:14:26.591Z,4.32
2018-03-16T07:16:54.221Z,4.32
2018-03-16T07:19:21.887Z,4.31
2018-03-16T07:21:49.479Z,4.31
2018-03-16T07:24:17.424Z,4.34
2018-03-16T07:26:45.020Z,4.33
2018-03-16T07:29:12.641Z,4.32
2018-03-16T07:31:40.291Z,4.28
2018-03-16T07:34:08.049Z,4.22
2018-03-16T07:36:35.635Z,4.16
2018-03-16T07:39:03.358Z,4.22
2018-03-16T07:41:31.159Z,4.22
2018-03-16T07:43:59.279Z,4.24
2018-03-16T07:46:27.120Z,4.20
2018-03-16T07:48:55.378Z,4.23
2018-03-16T07:51:24.064Z,4.19
2018-03-16T07:53:51.747Z,4.13
2018-03-16T07:56:19.515Z,4.22
2018-03-16T07:58:47.547Z,4.18
2018-03-16T08:01:15.321Z,4.18
2018-03-16T08:03:43.082Z,4.18
2018-03-16T08:06:10.809Z,4.17
2018-03-16T08:08:38.657Z,4.10
2018-03-16T08:11:06.266Z,4.07
2018-03-16T08:13:34.019Z,4.14
2018-03-16T08:16:01.804Z,4.09
2018-03-16T08:18:30.036Z,4.10
2018-03-16T08:20:57.689Z,4.15
2018-03-16T08:23:28.862Z,4.16
2018-03-16T08:25:56.534Z,4.18
2018-03-16T08:28:24.887Z,4.16
2018-03-16T08:30:52.509Z,4.18
2018-03-16T08:33:20.513Z,4.19
2018-03-16T08:35:48.236Z,4.18
2018-03-16T08:38:16.055Z,4.08
2018-03-16T08:40:43.666Z,4.03
2018-03-16T08:43:11.305Z,4.02
2018-03-16T08:45:39.038Z,4.00
2018-03-16T08:48:06.625Z,4.04
2018-03-16T08:50:34.448Z,4.02
2018-03-16T08:53:02.079Z,4.08
2018-03-16T08:55:29.724Z,4.03
2018-03-16T08:57:58.655Z,4.05
2018-03-16T09:00:26.562Z,4.10
2018-03-16T09:02:54.504Z,4.03
2018-03-16T09:05:22.217Z,3.99
2018-03-16T09:07:50.326Z,4.01
2018-03-16T09:10:17.966Z,3.99
2018-03-16T09:12:46.062Z,3.99
2018-03-16T09:15:13.804Z,3.98
2018-03-16T09:17:41.512Z,4.00
2018-03-16T09:20:12.831Z,4.04
2018-03-16T09:22:41.742Z,4.02
2018-03-16T09:25:09.710Z,4.04
2018-03-16T09:27:37.917Z,4.12
2018-03-16T09:30:05.505Z,4.11
2018-03-16T09:32:33.186Z,4.11
2018-03-16T09:35:01.119Z,4.09
2018-03-16T09:37:28.784Z,4.12
2018-03-16T09:39:56.410Z,4.12
2018-03-16T09:42:24.092Z,4.16
2018-03-16T09:44:51.721Z,4.17
2018-03-16T09:47:19.410Z,4.17
2018-03-16T09:49:47.080Z,4.20
2018-03-16T09:52:14.670Z,4.21
2018-03-16T09:54:54.070Z,4.21
2018-03-16T09:57:21.710Z,4.16
2018-03-16T09:59:49.539Z,4.18
2018-03-16T10:02:17.186Z,4.15
2018-03-16T10:04:45.119Z,4.16
2018-03-16T10:07:13.084Z,4.12
2018-03-16T10:09:40.698Z,4.14
2018-03-16T10:12:08.280Z,4.14
2018-03-16T10:14:35.926Z,4.12
2018-03-16T10:17:03.500Z,4.06
2018-03-16T10:19:31.174Z,4.12
2018-03-16T10:21:58.786Z,4.14
2018-03-16T10:24:26.821Z,4.20
2018-03-16T10:26:54.777Z,4.13
2018-03-16T10:29:22.409Z,4.17
2018-03-16T10:31:50.140Z,4.12
2018-03-16T10:34:18.937Z,4.15
2018-03-16T10:36:47.008Z,4.24
2018-03-16T10:39:14.841Z,4.21
2018-03-16T10:41:42.863Z,4.19
2018-03-16T10:44:10.572Z,4.21
2018-03-16T10:46:38.177Z,4.26
2018-03-16T10:49:06.199Z,4.26
2018-03-16T10:54:06.931Z,4.23
2018-03-16T10:56:34.607Z,4.23
2018-03-16T10:59:02.210Z,4.20
2018-03-16T11:01:35.377Z,4.25
2018-03-16T11:04:03.262Z,4.31
2018-03-16T11:06:34.755Z,4.30
2018-03-16T11:09:02.348Z,4.23
2018-03-16T11:11:30.060Z,4.23
2018-03-16T11:13:57.637Z,4.26
2018-03-16T11:16:25.234Z,4.27
2018-03-16T11:18:53.307Z,4.30
2018-03-16T11:21:20.909Z,4.31
2018-03-16T11:23:48.546Z,4.32
2018-03-16T11:26:16.287Z,4.39
2018-03-16T11:28:43.921Z,4.38
2018-03-16T11:31:12.981Z,4.31
2018-03-16T11:33:40.844Z,4.29
2018-03-16T11:36:14.403Z,4.33
2018-03-16T11:38:43.064Z,4.31
2018-03-16T11:41:14.054Z,4.24
2018-03-16T11:43:42.945Z,4.21
2018-03-16T11:46:11.348Z,4.10
2018-03-16T11:48:40.473Z,4.08
2018-03-16T11:51:11.090Z,4.08
2018-03-16T11:53:39.968Z,4.08
2018-03-16T11:56:22.139Z,4.05
2018-03-16T11:58:50.761Z,4.09
2018-03-16T12:01:19.186Z,4.14
2018-03-16T12:03:55.494Z,4.11
2018-03-16T12:06:40.440Z,4.09
2018-03-16T12:09:18.500Z,4.06
2018-03-16T12:11:48.107Z,4.02
2018-03-16T12:14:16.257Z,3.97
2018-03-16T12:16:43.964Z,3.99
2018-03-16T12:19:12.608Z,3.99
2018-03-16T12:21:43.426Z,4.02
2018-03-16T12:24:11.119Z,3.90
2018-03-16T12:26:38.725Z,3.85
2018-03-16T12:29:06.369Z,3.86
2018-03-16T12:31:34.136Z,3.88
2018-03-16T12:34:01.816Z,3.94
2018-03-16T12:36:29.452Z,3.93
2018-03-16T12:38:57.136Z,3.88
2018-03-16T12:41:24.966Z,3.79
2018-03-16T12:43:52.732Z,3.80
2018-03-16T12:46:20.434Z,3.85
2018-03-16T12:48:48.070Z,3.73
2018-03-16T12:51:15.738Z,3.77
2018-03-16T12:53:43.404Z,3.73
2018-03-16T12:56:11.420Z,3.67
2018-03-16T12:58:39.168Z,3.66
2018-03-16T13:01:06.798Z,3.67
2018-03-16T13:03:34.470Z,3.65
2018-03-16T13:06:02.167Z,3.57
2018-03-16T13:08:29.800Z,3.47
2018-03-16T13:10:57.601Z,3.37
2018-03-16T13:13:25.562Z,3.32
2018-03-16T13:15:53.572Z,3.32
2018-03-16T13:18:21.220Z,3.37
2018-03-16T13:20:48.945Z,3.35
2018-03-16T13:23:16.629Z,3.30
2018-03-16T13:25:44.216Z,3.33
2018-03-16T13:28:11.812Z,3.39
2018-03-16T13:30:39.495Z,3.33
2018-03-16T13:33:07.169Z,3.30
2018-03-16T13:35:34.756Z,3.34
2018-03-16T13:38:02.472Z,3.34
2018-03-16T13:40:30.128Z,3.36
2018-03-16T13:42:57.798Z,3.34
2018-03-16T13:45:25.594Z,3.30
2018-03-16T13:47:53.216Z,3.27
2018-03-16T13:50:20.840Z,3.18
2018-03-16T13:52:48.672Z,3.22
2018-03-16T13:55:16.346Z,3.24
2018-03-16T13:57:44.259Z,3.22
2018-03-16T14:00:12.167Z,3.28
2018-03-16T14:02:39.877Z,3.25
2018-03-16T14:05:07.886Z,3.35
2018-03-16T14:07:35.551Z,3.37
2018-03-16T14:10:03.184Z,3.39
2018-03-16T14:12:31.000Z,3.40
2018-03-16T14:14:58.761Z,3.40
2018-03-16T14:17:26.497Z,3.37
2018-03-16T14:19:54.219Z,3.36
2018-03-16T14:22:21.935Z,3.38
2018-03-16T14:24:49.574Z,3.29
2018-03-16T14:27:17.269Z,3.29
2018-03-16T14:29:44.870Z,3.21
2018-03-16T14:32:12.439Z,3.33
2018-03-16T14:34:40.112Z,3.40
2018-03-16T14:37:07.719Z,3.39
2018-03-16T14:39:35.456Z,3.37
2018-03-16T14:42:03.084Z,3.31
2018-03-16T14:44:30.882Z,3.37
2018-03-16T14:46:58.502Z,3.40
2018-03-16T14:49:26.233Z,3.45
2018-03-16T14:51:53.881Z,3.42
2018-03-16T14:54:21.505Z,3.45
2018-03-16T14:56:49.106Z,3.43
2018-03-16T14:59:16.992Z,3.46
2018-03-16T15:01:44.775Z,3.48
2018-03-16T15:04:12.388Z,3.48
2018-03-16T15:06:40.034Z,3.48
2018-03-16T15:09:07.806Z,3.42
2018-03-16T15:11:35.485Z,3.46
2018-03-16T15:14:03.127Z,3.40
2018-03-16T15:16:30.778Z,3.43
2018-03-16T15:18:58.409Z,3.43
2018-03-16T15:21:26.114Z,3.40
2018-03-16T15:23:53.801Z,3.30
2018-03-16T15:26:21.438Z,3.35
2018-03-16T15:28:49.084Z,3.28
2018-03-16T15:31:16.787Z,3.35
2018-03-16T15:33:44.635Z,3.32
2018-03-16T15:36:12.640Z,3.32
2018-03-16T15:38:40.333Z,3.27
2018-03-16T15:41:08.263Z,3.30
2018-03-16T15:43:35.985Z,3.23
2018-03-16T15:46:03.718Z,3.27
2018-03-16T15:48:31.323Z,3.21
2018-03-16T15:50:59.196Z,3.08
2018-03-16T15:53:26.827Z,3.11
2018-03-16T15:55:54.496Z,3.19
2018-03-16T15:58:22.180Z,3.25
2018-03-16T16:00:49.773Z,3.31
2018-03-16T16:03:17.398Z,3.32
2018-03-16T16:05:45.133Z,3.31
2018-03-16T16:08:12.732Z,3.14
2018-03-16T16:10:40.434Z,3.14
2018-03-16T16:13:08.096Z,3.12
2018-03-16T16:15:35.813Z,3.10
2018-03-16T16:18:03.548Z,3.02
2018-03-16T16:20:31.138Z,2.94
2018-03-16T16:22:58.855Z,2.90
2018-03-16T16:25:26.514Z,2.91
2018-03-16T16:27:54.160Z,2.89
2018-03-16T16:30:22.157Z,2.96
2018-03-16T16:32:49.953Z,2.96
2018-03-16T16:35:17.719Z,3.00
2018-03-16T16:37:45.297Z,2.92
2018-03-16T16:40:13.650Z,2.90
2018-03-16T16:42:41.286Z,2.90
2018-03-16T16:45:08.876Z,2.82
2018-03-16T16:47:36.541Z,2.84
2018-03-16T16:50:04.133Z,2.77
2018-03-16T16:52:31.821Z,2.70
2018-03-16T16:54:59.578Z,2.63
2018-03-16T16:57:27.162Z,2.59
2018-03-16T16:59:54.996Z,2.57
2018-03-16T17:02:22.738Z,2.61
2018-03-16T17:04:50.402Z,2.59
2018-03-16T17:07:18.047Z,2.57
2018-03-16T17:09:45.754Z,2.53
2018-03-16T17:12:13.525Z,2.49
2018-03-16T17:14:41.202Z,2.43
2018-03-16T17:17:08.764Z,2.37
2018-03-16T17:19:37.201Z,2.32
2018-03-16T17:22:05.491Z,2.33
2018-03-16T17:24:34.164Z,2.33
2018-03-16T17:27:02.398Z,2.32
2018-03-16T17:29:30.715Z,2.31
2018-03-16T17:31:59.088Z,2.32
2018-03-16T17:34:27.526Z,2.29
2018-03-16T17:36:55.723Z,2.22
2018-03-16T17:39:24.184Z,2.19
2018-03-16T17:41:52.224Z,2.19
2018-03-16T17:44:20.228Z,2.11
2018-03-16T17:46:47.873Z,2.14
2018-03-16T17:49:15.546Z,2.12
2018-03-16T17:51:43.309Z,2.06
2018-03-16T17:54:12.796Z,2.09
2018-03-16T17:56:41.983Z,2.05
2018-03-16T17:59:10.126Z,1.94
2018-03-16T18:01:38.506Z,2.01
2018-03-16T18:04:06.526Z,1.97
2018-03-16T18:06:34.614Z,2.03
2018-03-16T18:09:02.490Z,1.94
2018-03-16T18:11:30.175Z,1.93
2018-03-16T18:13:57.800Z,1.95
2018-03-16T18:16:25.582Z,1.90
2018-03-16T18:18:53.204Z,1.85
2018-03-16T18:21:21.328Z,1.87
2018-03-16T18:23:49.124Z,1.87
2018-03-16T18:26:16.826Z,1.83
2018-03-16T18:28:44.463Z,1.79
2018-03-16T18:31:12.424Z,1.82
2018-03-16T18:33:41.565Z,1.82
2018-03-16T18:36:10.660Z,1.79
2018-03-16T18:38:38.400Z,1.78
2018-03-16T18:41:06.075Z,1.73
2018-03-16T18:43:33.923Z,1.68
2018-03-16T18:46:01.601Z,1.64
2018-03-16T18:48:29.188Z,1.65
2018-03-16T18:50:56.801Z,1.63
2018-03-16T18:53:25.156Z,1.69
2018-03-16T18:55:52.746Z,1.67
2018-03-16T18:58:20.319Z,1.59
2018-03-16T19:00:48.458Z,1.54
2018-03-16T19:03:16.072Z,1.52
2018-03-16T19:05:43.726Z,1.56
2018-03-16T19:08:11.323Z,1.54
2018-03-16T19:10:38.999Z,1.51
2018-03-16T19:13:06.663Z,1.53
2018-03-16T19:15:34.311Z,1.53
2018-03-16T19:18:02.296Z,1.50
2018-03-16T19:20:29.943Z,1.48
2018-03-16T19:22:57.533Z,1.51
2018-03-16T19:25:25.392Z,1.54
2018-03-16T19:27:53.040Z,1.56
2018-03-16T19:30:20.703Z,1.53
2018-03-16T19:32:48.321Z,1.50
2018-03-16T19:35:15.953Z,1.51
2018-03-16T19:37:44.193Z,1.52
2018-03-16T19:40:12.019Z,1.50
2018-03-16T19:42:40.241Z,1.51
2018-03-16T19:45:07.822Z,1.48
2018-03-16T19:47:35.417Z,1.52
2018-03-16T19:50:03.035Z,1.49
2018-03-16T19:52:30.720Z,1.42
2018-03-16T19:54:58.732Z,1.40
2018-03-16T19:57:26.665Z,1.37
2018-03-16T19:59:54.268Z,1.42
2018-03-16T20:02:21.860Z,1.33
2018-03-16T20:04:49.580Z,1.35
2018-03-16T20:07:17.206Z,1.34
2018-03-16T20:09:45.181Z,1.31
2018-03-16T20:12:13.099Z,1.27
2018-03-16T20:14:41.019Z,1.29
2018-03-16T20:17:08.700Z,1.30
2018-03-16T20:19:36.537Z,1.33
2018-03-16T20:22:04.338Z,1.29
2018-03-16T20:24:32.046Z,1.26
2018-03-16T20:26:59.660Z,1.28
2018-03-16T20:29:27.238Z,1.33
2018-03-16T20:31:56.585Z,1.30
2018-03-16T20:34:24.189Z,1.28
2018-03-16T20:36:51.907Z,1.26
2018-03-16T20:39:19.660Z,1.23
2018-03-16T20:41:48.317Z,1.18
2018-03-16T20:44:16.219Z,1.16
2018-03-16T20:46:43.947Z,1.17
2018-03-16T20:49:11.551Z,1.18
2018-03-16T20:51:56.001Z,1.17
2018-03-16T20:54:23.893Z,1.20
2018-03-16T20:56:51.583Z,1.20
2018-03-16T20:59:19.574Z,1.24
2018-03-16T21:01:47.239Z,1.24
2018-03-16T21:04:14.870Z,1.15
2018-03-16T21:06:42.481Z,1.15
2018-03-16T21:09:10.125Z,1.16
2018-03-16T21:11:37.747Z,1.17
2018-03-16T21:14:05.776Z,1.18
2018-03-16T21:16:33.510Z,1.17
2018-03-16T21:19:01.197Z,1.16
2018-03-16T21:21:28.788Z,1.16
2018-03-16T21:23:59.768Z,1.15
2018-03-16T21:29:07.721Z,1.03
2018-03-16T21:31:35.406Z,1.03
2018-03-16T21:34:03.190Z,1.00
2018-03-16T21:36:30.902Z,0.99
2018-03-16T21:38:58.601Z,0.98
2018-03-16T21:41:26.257Z,0.97
2018-03-16T21:43:53.934Z,0.91
2018-03-16T21:46:21.569Z,0.87
2018-03-16T21:48:49.425Z,0.89
2018-03-16T21:51:17.377Z,0.85
2018-03-16T21:53:45.446Z,0.84
2018-03-16T21:56:13.080Z,0.83
2018-03-16T21:58:44.916Z,0.84
2018-03-16T22:04:10.468Z,0.76
2018-03-16T22:06:42.262Z,0.73
2018-03-16T22:09:10.170Z,0.71
2018-03-16T22:11:38.189Z,0.70
2018-03-16T22:14:10.328Z,0.73
2018-03-16T22:16:38.759Z,0.67
2018-03-16T22:19:06.913Z,0.64
2018-03-16T22:21:35.360Z,0.65
2018-03-16T22:24:03.428Z,0.59
2018-03-16T22:26:31.601Z,0.62
2018-03-16T22:29:01.618Z,0.58
2018-03-16T22:31:29.931Z,0.55
2018-03-16T22:33:58.350Z,0.53
2018-03-16T22:36:27.201Z,0.57
2018-03-16T22:38:54.968Z,0.52
2018-03-16T22:41:22.600Z,0.51
2018-03-16T22:43:51.118Z,0.40
2018-03-16T22:46:19.964Z,0.41
2018-03-16T22:48:47.784Z,0.39
2018-03-16T22:51:15.810Z,0.35
2018-03-16T22:53:43.979Z,0.36
2018-03-16T22:56:12.119Z,0.36
2018-03-16T22:58:40.426Z,0.34
2018-03-16T23:01:08.647Z,0.23
2018-03-16T23:03:36.985Z,0.24
2018-03-16T23:06:05.262Z,0.20
2018-03-16T23:08:33.512Z,0.17
2018-03-16T23:11:01.765Z,0.19
2018-03-16T23:13:29.783Z,0.08
2018-03-16T23:15:57.833Z,0.08
2018-03-16T23:18:25.883Z,0.10
2018-03-16T23:20:54.232Z,0.12
2018-03-16T23:23:22.136Z,0.11
2018-03-16T23:25:50.460Z,0.06
2018-03-16T23:28:18.449Z,0.06
2018-03-16T23:30:46.805Z,0.07
2018-03-16T23:33:14.957Z,0.04
2018-03-16T23:35:43.139Z,0.07
2018-03-16T23:38:11.653Z,0.05
2018-03-16T23:40:39.640Z,0.02
2018-03-16T23:43:07.864Z,0.04
2018-03-16T23:45:36.542Z,0.05
2018-03-16T23:48:04.591Z,0.06
2018-03-16T23:50:32.849Z,0.08
2018-03-16T23:53:00.632Z,0.06
2018-03-16T23:55:28.867Z,0.07
2018-03-16T23:57:57.127Z,0.12
